createdAt,value
2018-01-02T00:02:09.656Z,90.93
2018-01-02T00:04:37.223Z,90.79
2018-01-02T00:07:04.839Z,90.75
2018-01-02T00:09:32.403Z,91.66
2018-01-02T00:11:59.982Z,91.48
2018-01-02T00:14:27.651Z,92.19
2018-01-02T00:16:55.218Z,92.77
2018-01-02T00:19:22.793Z,92.32
2018-01-02T00:21:50.414Z,91.88
2018-01-02T00:24:17.987Z,91.95
2018-01-02T00:26:45.568Z,91.91
2018-01-02T00:29:13.186Z,92.90
2018-01-02T00:31:40.770Z,93.45
2018-01-02T00:34:08.346Z,93.81
2018-01-02T00:36:35.969Z,93.95
2018-01-02T00:39:03.628Z,93.43
2018-01-02T00:41:31.207Z,93.56
2018-01-02T00:43:58.831Z,93.78
2018-01-02T00:46:26.414Z,93.83
2018-01-02T00:48:53.990Z,93.86
2018-01-02T00:51:21.606Z,93.86
2018-01-02T00:53:49.189Z,93.92
2018-01-02T00:56:16.900Z,94.16
2018-01-02T00:58:44.518Z,94.22
2018-01-02T01:01:12.328Z,93.97
2018-01-02T01:03:39.906Z,93.18
2018-01-02T01:06:07.521Z,93.11
2018-01-02T01:08:35.106Z,92.94
2018-01-02T01:11:02.676Z,93.58
2018-01-02T01:13:30.322Z,92.64
2018-01-02T01:15:57.900Z,92.97
2018-01-02T01:18:25.485Z,93.65
2018-01-02T01:20:53.112Z,93.24
2018-01-02T01:23:20.676Z,94.04
2018-01-02T01:25:48.248Z,93.34
2018-01-02T01:28:15.878Z,92.67
2018-01-02T01:30:43.462Z,92.93
2018-01-02T01:33:11.041Z,92.34
2018-01-02T01:35:38.656Z,92.31
2018-01-02T01:38:06.249Z,92.11
2018-01-02T01:40:33.853Z,91.94
2018-01-02T01:43:01.485Z,92.36
2018-01-02T01:45:29.055Z,93.47
2018-01-02T01:47:56.645Z,93.13
2018-01-02T01:50:24.257Z,92.63
2018-01-02T01:52:51.824Z,93.56
2018-01-02T01:55:19.397Z,93.91
2018-01-02T01:57:46.995Z,92.46
2018-01-02T02:00:14.599Z,92.23
2018-01-02T02:02:42.226Z,92.30
2018-01-02T02:05:09.839Z,93.51
2018-01-02T02:07:37.408Z,93.43
2018-01-02T02:10:04.998Z,93.50
2018-01-02T02:12:32.614Z,93.34
2018-01-02T02:15:00.198Z,92.22
2018-01-02T02:17:28.687Z,91.81
2018-01-02T02:19:56.497Z,92.13
2018-01-02T02:22:24.081Z,91.72
2018-01-02T02:24:51.660Z,90.80
2018-01-02T02:27:19.263Z,91.20
2018-01-02T02:29:46.831Z,92.56
2018-01-02T02:32:14.386Z,91.99
2018-01-02T02:34:42.012Z,91.77
2018-01-02T02:37:09.591Z,91.83
2018-01-02T02:39:37.183Z,91.55
2018-01-02T02:42:04.805Z,92.31
2018-01-02T02:44:32.390Z,92.89
2018-01-02T02:46:59.972Z,92.51
2018-01-02T02:49:27.585Z,92.19
2018-01-02T02:51:55.158Z,91.45
2018-01-02T02:54:22.712Z,91.94
2018-01-02T02:56:50.323Z,92.37
2018-01-02T02:59:17.898Z,92.48
2018-01-02T03:01:45.494Z,92.79
2018-01-02T03:04:13.101Z,92.52
2018-01-02T03:06:40.690Z,93.05
2018-01-02T03:09:08.269Z,93.09
2018-01-02T03:11:35.881Z,93.31
2018-01-02T03:14:03.457Z,93.09
2018-01-02T03:16:31.137Z,92.73
2018-01-02T03:18:58.742Z,92.16
2018-01-02T03:21:26.325Z,92.55
2018-01-02T03:23:53.910Z,91.67
2018-01-02T03:26:21.556Z,91.29
2018-01-02T03:28:49.127Z,92.27
2018-01-02T03:31:16.711Z,91.89
2018-01-02T03:33:44.322Z,92.21
2018-01-02T03:36:11.893Z,92.52
2018-01-02T03:38:39.464Z,93.01
2018-01-02T03:41:07.081Z,93.21
2018-01-02T03:43:34.662Z,93.10
2018-01-02T03:46:02.249Z,92.98
2018-01-02T03:48:29.879Z,92.99
2018-01-02T03:50:57.443Z,92.93
2018-01-02T03:53:25.021Z,92.99
2018-01-02T03:55:52.656Z,92.97
2018-01-02T03:58:20.235Z,93.38
2018-01-02T04:00:47.813Z,93.74
2018-01-02T04:03:15.481Z,93.70
2018-01-02T04:05:43.059Z,93.92
2018-01-02T04:08:10.634Z,94.56
2018-01-02T04:10:38.327Z,94.23
2018-01-02T04:13:05.905Z,93.95
2018-01-02T04:15:33.454Z,93.87
2018-01-02T04:18:01.073Z,93.16
2018-01-02T04:20:28.648Z,92.90
2018-01-02T04:22:56.239Z,93.12
2018-01-02T04:25:23.849Z,92.80
2018-01-02T04:27:51.418Z,93.54
2018-01-02T04:30:18.973Z,93.25
2018-01-02T04:32:46.589Z,93.43
2018-01-02T04:35:14.173Z,93.94
2018-01-02T04:37:41.753Z,93.51
2018-01-02T04:40:09.421Z,92.75
2018-01-02T04:42:37.002Z,92.59
2018-01-02T04:45:04.563Z,93.71
2018-01-02T04:47:32.184Z,93.56
2018-01-02T04:49:59.774Z,93.93
2018-01-02T04:52:27.358Z,94.28
2018-01-02T04:54:54.976Z,94.01
2018-01-02T04:57:22.558Z,94.13
2018-01-02T04:59:50.119Z,94.01
2018-01-02T05:02:17.751Z,93.96
2018-01-02T05:04:45.341Z,94.22
2018-01-02T05:07:12.945Z,94.05
2018-01-02T05:09:40.678Z,94.00
2018-01-02T05:12:08.270Z,93.63
2018-01-02T05:14:36.012Z,93.89
2018-01-02T05:17:03.616Z,94.49
2018-01-02T05:19:31.186Z,94.53
2018-01-02T05:21:58.761Z,94.25
2018-01-02T05:24:26.399Z,94.16
2018-01-02T05:26:54.015Z,94.29
2018-01-02T05:29:21.662Z,94.72
2018-01-02T05:31:49.272Z,94.78
2018-01-02T05:34:16.853Z,94.40
2018-01-02T05:36:44.440Z,94.29
2018-01-02T05:39:12.062Z,94.07
2018-01-02T05:41:39.640Z,93.50
2018-01-02T05:44:07.229Z,93.56
2018-01-02T05:46:34.853Z,93.31
2018-01-02T05:49:02.426Z,93.70
2018-01-02T05:51:29.978Z,94.52
2018-01-02T05:53:57.596Z,94.72
2018-01-02T05:56:25.164Z,94.69
2018-01-02T05:58:52.745Z,94.71
2018-01-02T06:01:20.360Z,94.99
2018-01-02T06:03:47.950Z,94.65
2018-01-02T06:06:15.568Z,94.42
2018-01-02T06:08:43.180Z,94.81
2018-01-02T06:11:10.790Z,94.14
2018-01-02T06:13:38.363Z,93.91
2018-01-02T06:16:05.991Z,94.26
2018-01-02T06:18:33.592Z,94.36
2018-01-02T06:21:01.216Z,94.27
2018-01-02T06:23:28.938Z,94.05
2018-01-02T06:25:56.588Z,94.29
2018-01-02T06:28:24.172Z,94.21
2018-01-02T06:30:51.802Z,94.21
2018-01-02T06:33:19.391Z,93.44
2018-01-02T06:35:46.961Z,92.34
2018-01-02T06:38:14.571Z,91.47
2018-01-02T06:40:42.143Z,91.89
2018-01-02T06:43:09.716Z,91.93
2018-01-02T06:45:37.348Z,92.53
2018-01-02T06:48:04.930Z,92.83
2018-01-02T06:50:32.502Z,92.85
2018-01-02T06:53:00.158Z,91.98
2018-01-02T06:55:27.734Z,91.44
2018-01-02T06:57:55.309Z,84.67
2018-01-02T07:00:22.930Z,76.16
2018-01-02T07:02:50.497Z,72.01
2018-01-02T07:05:18.081Z,66.45
2018-01-02T07:07:45.720Z,68.30
2018-01-02T07:10:13.300Z,60.03
2018-01-02T07:12:40.887Z,58.37
2018-01-02T07:15:08.511Z,55.80
2018-01-02T07:17:36.092Z,55.35
2018-01-02T07:20:03.717Z,55.79
2018-01-02T07:22:31.346Z,53.86
2018-01-02T07:24:58.968Z,54.30
2018-01-02T07:27:26.543Z,52.53
2018-01-02T07:29:54.150Z,54.21
2018-01-02T07:32:21.739Z,53.17
2018-01-02T07:34:49.335Z,52.00
2018-01-02T07:37:16.956Z,51.24
2018-01-02T07:39:44.523Z,50.10
2018-01-02T07:42:12.087Z,49.27
2018-01-02T07:44:39.755Z,49.08
2018-01-02T07:47:07.349Z,49.33
2018-01-02T07:49:34.936Z,48.07
2018-01-02T07:52:02.555Z,47.14
2018-01-02T07:54:30.133Z,47.79
2018-01-02T07:56:57.728Z,46.66
2018-01-02T07:59:25.353Z,47.93
2018-01-02T08:01:55.855Z,47.29
2018-01-02T08:04:23.456Z,46.30
2018-01-02T08:06:51.118Z,46.22
2018-01-02T08:09:18.704Z,45.75
2018-01-02T08:11:46.294Z,45.67
2018-01-02T08:14:13.927Z,45.93
2018-01-02T08:16:41.528Z,46.73
2018-01-02T08:19:09.115Z,47.51
2018-01-02T08:21:36.751Z,44.50
2018-01-02T08:24:04.389Z,43.89
2018-01-02T08:26:31.982Z,44.22
2018-01-02T08:28:59.617Z,45.22
2018-01-02T08:31:27.192Z,47.74
2018-01-02T08:33:54.782Z,50.63
2018-01-02T08:36:28.229Z,51.37
2018-01-02T08:38:55.913Z,53.87
2018-01-02T08:41:23.537Z,54.72
2018-01-02T08:43:51.173Z,59.21
2018-01-02T08:46:18.766Z,57.49
2018-01-02T08:48:46.401Z,58.07
2018-01-02T08:51:14.103Z,58.12
2018-01-02T08:53:41.689Z,57.05
2018-01-02T08:56:09.285Z,55.23
2018-01-02T08:58:36.923Z,55.76
2018-01-02T09:01:04.510Z,54.95
2018-01-02T09:03:32.117Z,55.07
2018-01-02T09:05:59.753Z,52.92
2018-01-02T09:08:27.357Z,52.36
2018-01-02T09:10:54.998Z,52.41
2018-01-02T09:16:21.710Z,51.00
2018-01-02T09:18:49.329Z,52.12
2018-01-02T09:21:16.921Z,52.59
2018-01-02T09:23:44.534Z,53.48
2018-01-02T09:26:12.270Z,53.25
2018-01-02T09:28:39.854Z,53.61
2018-01-02T09:31:07.446Z,54.72
2018-01-02T09:33:35.081Z,54.26
2018-01-02T09:36:02.669Z,55.27
2018-01-02T09:38:30.233Z,55.64
2018-01-02T09:40:57.853Z,56.43
2018-01-02T09:43:25.427Z,58.44
2018-01-02T09:45:53.105Z,58.06
2018-01-02T09:48:20.715Z,55.93
2018-01-02T09:50:48.299Z,59.31
2018-01-02T09:53:15.872Z,58.65
2018-01-02T09:55:43.520Z,58.41
2018-01-02T09:58:11.088Z,59.67
2018-01-02T10:00:38.744Z,59.00
2018-01-02T10:03:06.350Z,58.78
2018-01-02T10:05:33.944Z,57.21
2018-01-02T10:08:01.565Z,54.16
2018-01-02T10:10:29.215Z,52.01
2018-01-02T10:12:56.816Z,53.76
2018-01-02T10:15:24.461Z,52.90
2018-01-02T10:17:52.224Z,52.43
2018-01-02T10:20:19.790Z,52.21
2018-01-02T10:22:47.375Z,52.49
2018-01-02T10:25:14.988Z,52.11
2018-01-02T10:27:42.760Z,51.98
2018-01-02T10:30:10.345Z,52.10
2018-01-02T10:32:37.960Z,53.52
2018-01-02T10:35:05.518Z,53.60
2018-01-02T10:37:33.097Z,54.16
2018-01-02T10:40:00.695Z,54.37
2018-01-02T10:42:28.248Z,53.97
2018-01-02T10:44:55.806Z,52.63
2018-01-02T10:47:23.404Z,55.59
2018-01-02T10:49:50.959Z,55.38
2018-01-02T10:52:18.540Z,54.33
2018-01-02T10:54:46.144Z,55.32
2018-01-02T10:57:13.837Z,56.30
2018-01-02T10:59:41.425Z,56.36
2018-01-02T11:02:09.048Z,55.80
2018-01-02T11:04:36.655Z,55.90
2018-01-02T11:07:04.231Z,55.38
2018-01-02T11:09:31.869Z,55.53
2018-01-02T11:11:59.464Z,55.79
2018-01-02T11:14:42.921Z,56.49
2018-01-02T11:17:10.500Z,57.04
2018-01-02T11:19:38.109Z,58.28
2018-01-02T11:22:05.819Z,59.34
2018-01-02T11:24:33.400Z,61.16
2018-01-02T11:27:00.967Z,62.67
2018-01-02T11:29:28.603Z,63.93
2018-01-02T11:31:56.264Z,66.19
2018-01-02T11:34:23.850Z,67.73
2018-01-02T11:36:51.472Z,68.45
2018-01-02T11:39:19.039Z,68.77
2018-01-02T11:41:46.583Z,69.44
2018-01-02T11:44:14.200Z,70.02
2018-01-02T11:46:41.771Z,69.65
2018-01-02T11:49:09.344Z,70.47
2018-01-02T11:51:36.959Z,71.69
2018-01-02T11:54:04.563Z,73.02
2018-01-02T11:56:32.190Z,74.12
2018-01-02T11:58:59.816Z,75.54
2018-01-02T12:01:27.427Z,75.54
2018-01-02T12:03:55.010Z,75.65
2018-01-02T12:06:22.626Z,75.56
2018-01-02T12:08:50.187Z,77.76
2018-01-02T12:11:17.754Z,79.11
2018-01-02T12:13:45.395Z,78.01
2018-01-02T12:16:12.956Z,78.01
2018-01-02T12:18:40.518Z,81.37
2018-01-02T12:21:08.116Z,81.36
2018-01-02T12:23:35.717Z,80.68
2018-01-02T12:26:03.270Z,81.19
2018-01-02T12:28:30.877Z,80.87
2018-01-02T12:30:58.505Z,79.79
2018-01-02T12:33:26.579Z,82.39
2018-01-02T12:35:54.181Z,82.99
2018-01-02T12:38:21.751Z,82.98
2018-01-02T12:40:49.301Z,81.96
2018-01-02T12:43:16.905Z,81.39
2018-01-02T12:45:44.475Z,79.87
2018-01-02T12:48:12.053Z,78.36
2018-01-02T12:50:39.631Z,78.18
2018-01-02T12:53:07.218Z,79.28
2018-01-02T12:55:34.794Z,78.34
2018-01-02T12:58:02.415Z,76.91
2018-01-02T13:00:29.993Z,72.22
2018-01-02T13:02:57.565Z,64.39
2018-01-02T13:05:25.172Z,58.69
2018-01-02T13:07:52.745Z,54.48
2018-01-02T13:10:20.320Z,52.47
2018-01-02T13:12:47.907Z,48.69
2018-01-02T13:15:15.491Z,47.77
2018-01-02T13:17:43.119Z,45.23
2018-01-02T13:20:10.742Z,42.63
2018-01-02T13:22:38.303Z,41.90
2018-01-02T13:25:05.882Z,40.50
2018-01-02T13:27:33.486Z,40.46
2018-01-02T13:30:01.054Z,39.50
2018-01-02T13:32:28.665Z,40.64
2018-01-02T13:34:56.292Z,42.31
2018-01-02T13:37:23.967Z,43.64
2018-01-02T13:39:51.562Z,42.67
2018-01-02T13:42:19.213Z,42.29
2018-01-02T13:44:46.765Z,41.59
2018-01-02T13:47:14.348Z,45.37
2018-01-02T13:49:41.954Z,45.35
2018-01-02T13:52:09.557Z,45.11
2018-01-02T13:54:37.144Z,45.43
2018-01-02T13:57:04.762Z,44.13
2018-01-02T13:59:32.355Z,44.73
2018-01-02T14:01:59.951Z,45.13
2018-01-02T14:04:27.641Z,46.72
2018-01-02T14:06:55.230Z,48.14
2018-01-02T14:09:22.832Z,48.74
2018-01-02T14:11:50.442Z,49.89
2018-01-02T14:14:18.085Z,52.52
2018-01-02T14:16:45.659Z,55.36
2018-01-02T14:19:13.268Z,59.17
2018-01-02T14:21:40.843Z,61.17
2018-01-02T14:24:08.425Z,62.94
2018-01-02T14:26:36.040Z,64.77
2018-01-02T14:29:03.644Z,67.01
2018-01-02T14:31:31.216Z,69.05
2018-01-02T14:33:58.832Z,72.88
2018-01-02T14:36:26.430Z,73.58
2018-01-02T14:38:54.003Z,75.56
2018-01-02T14:41:21.636Z,78.54
2018-01-02T14:43:49.220Z,80.09
2018-01-02T14:46:16.815Z,82.02
2018-01-02T14:48:44.462Z,83.00
2018-01-02T14:51:12.129Z,84.17
2018-01-02T14:53:39.733Z,85.41
2018-01-02T14:56:07.369Z,85.33
2018-01-02T14:58:34.961Z,85.20
2018-01-02T15:01:02.698Z,86.50
2018-01-02T15:03:30.341Z,85.70
2018-01-02T15:05:57.937Z,85.48
2018-01-02T15:08:25.491Z,86.50
2018-01-02T15:10:53.099Z,87.90
2018-01-02T15:13:20.687Z,89.27
2018-01-02T15:15:48.276Z,89.84
2018-01-02T15:18:15.900Z,90.20
2018-01-02T15:20:43.484Z,89.65
2018-01-02T15:23:11.076Z,90.26
2018-01-02T15:25:38.686Z,90.74
2018-01-02T15:28:06.311Z,89.98
2018-01-02T15:30:33.897Z,90.24
2018-01-02T15:33:01.568Z,90.64
2018-01-02T15:35:29.149Z,90.76
2018-01-02T15:37:56.741Z,91.59
2018-01-02T15:40:24.348Z,92.92
2018-01-02T15:42:51.912Z,92.66
2018-01-02T15:45:19.496Z,92.54
2018-01-02T15:47:47.112Z,92.30
2018-01-02T15:50:14.708Z,92.50
2018-01-02T15:52:42.340Z,92.37
2018-01-02T15:55:09.956Z,92.52
2018-01-02T15:57:37.522Z,92.92
2018-01-02T16:00:05.109Z,92.27
2018-01-02T16:02:32.785Z,92.29
2018-01-02T16:05:00.380Z,94.04
2018-01-02T16:07:27.972Z,93.93
2018-01-02T16:09:55.603Z,93.28
2018-01-02T16:12:23.187Z,93.60
2018-01-02T16:14:50.771Z,93.87
2018-01-02T16:17:18.381Z,93.89
2018-01-02T16:19:45.995Z,93.62
2018-01-02T16:22:13.571Z,93.80
2018-01-02T16:24:41.306Z,93.91
2018-01-02T16:27:08.913Z,94.59
2018-01-02T16:29:36.829Z,94.49
2018-01-02T16:32:04.497Z,94.56
2018-01-02T16:34:32.075Z,94.37
2018-01-02T16:36:59.816Z,94.43
2018-01-02T16:39:27.444Z,94.56
2018-01-02T16:41:55.016Z,94.85
2018-01-02T16:44:22.614Z,95.44
2018-01-02T16:46:50.253Z,95.89
2018-01-02T16:49:17.825Z,95.49
2018-01-02T16:51:45.933Z,95.51
2018-01-02T16:54:13.549Z,95.22
2018-01-02T16:56:41.115Z,94.43
2018-01-02T16:59:08.711Z,94.28
2018-01-02T17:01:36.341Z,94.53
2018-01-02T17:04:03.922Z,95.41
2018-01-02T17:06:31.500Z,95.88
2018-01-02T17:08:59.104Z,97.56
2018-01-02T17:11:26.889Z,96.57
2018-01-02T17:13:54.464Z,97.29
2018-01-02T17:16:22.094Z,95.91
2018-01-02T17:18:49.647Z,94.87
2018-01-02T17:21:17.213Z,96.55
2018-01-02T17:23:44.826Z,97.59
2018-01-02T17:26:12.407Z,95.99
2018-01-02T17:28:39.977Z,95.21
2018-01-02T17:31:07.588Z,95.92
2018-01-02T17:33:35.205Z,95.19
2018-01-02T17:36:02.803Z,94.70
2018-01-02T17:38:30.427Z,94.67
2018-01-02T17:40:58.009Z,94.64
2018-01-02T17:43:25.567Z,93.78
2018-01-02T17:45:53.165Z,93.78
2018-01-02T17:48:20.746Z,94.51
2018-01-02T17:50:48.333Z,94.07
2018-01-02T17:53:15.943Z,93.41
2018-01-02T17:55:43.524Z,93.63
2018-01-02T17:58:11.257Z,93.77
2018-01-02T18:00:38.881Z,94.07
2018-01-02T18:03:06.448Z,94.16
2018-01-02T18:05:34.012Z,93.72
2018-01-02T18:08:01.639Z,93.78
2018-01-02T18:10:29.209Z,94.01
2018-01-02T18:12:56.765Z,94.37
2018-01-02T18:15:24.403Z,94.71
2018-01-02T18:17:52.041Z,95.01
2018-01-02T18:20:19.616Z,96.13
2018-01-02T18:22:47.285Z,97.12
2018-01-02T18:25:14.851Z,96.14
2018-01-02T18:27:42.417Z,95.09
2018-01-02T18:30:10.030Z,94.54
2018-01-02T18:32:37.588Z,94.07
2018-01-02T18:35:05.140Z,93.83
2018-01-02T18:37:32.747Z,93.69
2018-01-02T18:40:00.317Z,93.97
2018-01-02T18:42:27.884Z,93.84
2018-01-02T18:44:55.477Z,95.76
2018-01-02T18:47:23.035Z,95.28
2018-01-02T18:49:50.618Z,94.95
2018-01-02T18:52:18.228Z,95.28
2018-01-02T18:54:45.855Z,95.18
2018-01-02T18:57:13.476Z,95.60
2018-01-02T18:59:41.101Z,95.85
2018-01-02T19:02:08.673Z,95.66
2018-01-02T19:04:36.252Z,95.24
2018-01-02T19:07:03.887Z,95.68
2018-01-02T19:09:31.462Z,95.76
2018-01-02T19:11:59.038Z,95.47
2018-01-02T19:14:26.645Z,95.03
2018-01-02T19:16:54.203Z,94.99
2018-01-02T19:19:21.761Z,94.69
2018-01-02T19:21:49.354Z,94.91
2018-01-02T19:24:16.935Z,95.05
2018-01-02T19:26:44.504Z,95.21
2018-01-02T19:29:12.094Z,95.29
2018-01-02T19:31:39.658Z,95.27
2018-01-02T19:34:07.219Z,96.01
2018-01-02T19:36:34.815Z,96.08
2018-01-02T19:39:02.393Z,96.01
2018-01-02T19:41:30.006Z,96.40
2018-01-02T19:43:57.610Z,96.57
2018-01-02T19:46:25.234Z,96.66
2018-01-02T19:48:52.810Z,96.76
2018-01-02T19:51:20.448Z,96.75
2018-01-02T19:53:48.026Z,96.85
2018-01-02T19:56:15.601Z,97.19
2018-01-02T19:58:43.191Z,97.38
2018-01-02T20:01:10.772Z,97.19
2018-01-02T20:03:38.364Z,96.61
2018-01-02T20:06:06.018Z,96.04
2018-01-02T20:08:33.587Z,95.75
2018-01-02T20:11:01.174Z,95.56
2018-01-02T20:13:28.791Z,95.87
2018-01-02T20:15:56.351Z,95.40
2018-01-02T20:18:29.511Z,94.75
2018-01-02T20:20:57.081Z,94.60
2018-01-02T20:23:24.664Z,94.69
2018-01-02T20:25:52.277Z,94.80
2018-01-02T20:28:19.841Z,94.31
2018-01-02T20:30:47.493Z,94.27
2018-01-02T20:33:15.098Z,94.64
2018-01-02T20:35:42.673Z,94.85
2018-01-02T20:38:10.240Z,94.93
2018-01-02T20:40:37.830Z,95.18
2018-01-02T20:43:05.431Z,95.46
2018-01-02T20:45:33.055Z,95.44
2018-01-02T20:48:00.671Z,95.25
2018-01-02T20:50:28.269Z,95.41
2018-01-02T20:52:55.853Z,95.48
2018-01-02T20:55:23.500Z,95.55
2018-01-02T20:57:51.158Z,95.47
2018-01-02T21:00:18.746Z,95.73
2018-01-02T21:02:46.359Z,95.56
2018-01-02T21:05:13.936Z,95.62
2018-01-02T21:07:41.512Z,95.81
2018-01-02T21:10:09.151Z,95.71
2018-01-02T21:12:36.734Z,95.55
2018-01-02T21:15:04.355Z,95.28
2018-01-02T21:17:31.977Z,95.71
2018-01-02T21:19:59.558Z,96.02
2018-01-02T21:22:27.133Z,95.77
2018-01-02T21:24:54.754Z,95.67
2018-01-02T21:27:22.318Z,95.40
2018-01-02T21:29:49.905Z,94.96
2018-01-02T21:32:17.486Z,94.95
2018-01-02T21:34:45.073Z,95.08
2018-01-02T21:37:12.652Z,94.51
2018-01-02T21:39:40.264Z,94.18
2018-01-02T21:42:07.828Z,94.48
2018-01-02T21:44:35.432Z,94.42
2018-01-02T21:47:03.045Z,94.54
2018-01-02T21:49:30.610Z,94.33
2018-01-02T21:51:58.198Z,94.55
2018-01-02T21:54:25.845Z,94.60
2018-01-02T21:56:53.509Z,95.22
2018-01-02T21:59:21.132Z,95.16
2018-01-02T22:01:48.792Z,95.14
2018-01-02T22:04:16.385Z,95.06
2018-01-02T22:06:43.969Z,94.87
2018-01-02T22:09:11.573Z,94.15
2018-01-02T22:11:39.248Z,94.23
2018-01-02T22:14:06.832Z,94.09
2018-01-02T22:16:34.446Z,93.82
2018-01-02T22:19:02.045Z,94.26
2018-01-02T22:21:29.607Z,94.50
2018-01-02T22:23:57.221Z,94.41
2018-01-02T22:26:24.793Z,94.74
2018-01-02T22:28:52.361Z,94.57
2018-01-02T22:31:19.964Z,94.46
2018-01-02T22:33:47.527Z,93.95
2018-01-02T22:36:15.102Z,93.88
2018-01-02T22:38:42.902Z,94.01
2018-01-02T22:41:10.474Z,94.16
2018-01-02T22:43:38.029Z,94.10
2018-01-02T22:46:06.240Z,93.97
2018-01-02T22:48:33.808Z,93.92
2018-01-02T22:51:01.390Z,93.41
2018-01-02T22:53:28.987Z,93.12
2018-01-02T22:55:56.638Z,92.38
2018-01-02T22:58:24.213Z,92.29
2018-01-02T23:00:51.813Z,91.80
2018-01-02T23:03:19.387Z,91.60
2018-01-02T23:05:46.952Z,91.53
2018-01-02T23:08:14.556Z,91.75
2018-01-02T23:10:42.121Z,91.58
2018-01-02T23:13:09.755Z,91.66
2018-01-02T23:15:37.334Z,91.78
2018-01-02T23:18:04.904Z,91.86
2018-01-02T23:20:32.514Z,92.04
2018-01-02T23:23:00.078Z,91.88
2018-01-02T23:25:27.632Z,92.08
2018-01-02T23:27:55.227Z,91.98
2018-01-02T23:30:22.797Z,91.77
2018-01-02T23:32:50.376Z,91.54
2018-01-02T23:35:17.988Z,91.87
2018-01-02T23:37:45.558Z,91.47
2018-01-02T23:40:13.135Z,91.79
2018-01-02T23:42:40.781Z,92.40
2018-01-02T23:45:08.338Z,92.44
2018-01-02T23:47:35.918Z,92.68
2018-01-02T23:50:03.521Z,92.33
2018-01-02T23:52:31.095Z,91.83
2018-01-02T23:54:58.664Z,91.85
2018-01-02T23:57:26.281Z,91.53
2018-01-02T23:59:53.851Z,91.16
